Time,TemperatureF,DewpointF,PressureIn,WindDirection,WindDirectionDegrees,WindSpeedMPH,WindSpeedGustMPH,Humidity,HourlyPrecipIn,Conditions,Clouds,dailyrainin,SoftwareType,DateUTC
2013-05-29 00:02:00,73.0,73.0,30.12,SE,129,3.0,7.0,100,99.99,,,-99.99,,2013-05-29 04:02:00,
2013-05-29 00:13:00,72.0,72.0,30.11,SE,131,5.0,8.0,100,99.99,,,-99.99,,2013-05-29 04:13:00,
2013-05-29 00:23:00,72.0,72.0,30.11,SE,131,5.0,8.0,100,99.99,,,-99.99,,2013-05-29 04:23:00,
2013-05-29 00:33:00,72.0,72.0,30.11,East,90,4.0,7.0,100,99.99,,,-99.99,,2013-05-29 04:33:00,
2013-05-29 00:42:00,72.0,72.0,30.11,East,90,4.0,7.0,100,99.99,,,-99.99,,2013-05-29 04:42:00,
2013-05-29 00:53:00,71.0,71.0,30.11,ESE,107,3.0,6.0,100,99.99,,,-99.99,,2013-05-29 04:53:00,
2013-05-29 01:02:00,71.0,71.0,30.10,ESE,111,5.0,9.0,100,99.99,,,-99.99,,2013-05-29 05:02:00,
2013-05-29 01:12:00,71.0,71.0,30.10,ESE,111,5.0,9.0,100,99.99,,,-99.99,,2013-05-29 05:12:00,
2013-05-29 01:22:00,71.0,71.0,30.10,ESE,111,4.0,8.0,100,99.99,,,-99.99,,2013-05-29 05:22:00,
2013-05-29 01:32:00,71.0,71.0,30.10,ESE,113,3.0,6.0,100,99.99,,,-99.99,,2013-05-29 05:32:00,
2013-05-29 01:42:00,71.0,71.0,30.10,ESE,113,3.0,6.0,100,99.99,,,-99.99,,2013-05-29 05:42:00,
2013-05-29 01:52:00,71.0,71.0,30.09,ESE,108,2.0,5.0,100,99.99,,,-99.99,,2013-05-29 05:52:00,
2013-05-29 02:02:00,71.0,71.0,30.09,East,101,1.0,5.0,100,99.99,,,-99.99,,2013-05-29 06:02:00,
2013-05-29 02:12:00,71.0,71.0,30.09,East,101,1.0,5.0,100,99.99,,,-99.99,,2013-05-29 06:12:00,
2013-05-29 02:21:00,71.0,71.0,30.09,ESE,104,1.0,4.0,100,99.99,,,-99.99,,2013-05-29 06:21:00,
2013-05-29 02:32:00,71.0,71.0,30.09,ESE,107,3.0,8.0,100,99.99,,,-99.99,,2013-05-29 06:32:00,
2013-05-29 02:42:00,71.0,71.0,30.09,ESE,107,3.0,8.0,100,99.99,,,-99.99,,2013-05-29 06:42:00,
2013-05-29 02:52:00,71.0,71.0,30.08,ESE,114,3.0,5.0,100,99.99,,,-99.99,,2013-05-29 06:52:00,
2013-05-29 03:01:00,71.0,71.0,30.08,East,97,2.0,5.0,100,99.99,,,-99.99,,2013-05-29 07:01:00,
2013-05-29 03:11:00,71.0,71.0,30.08,ESE,105,2.0,4.0,100,99.99,,,-99.99,,2013-05-29 07:11:00,
2013-05-29 03:21:00,71.0,71.0,30.08,ESE,105,2.0,4.0,100,99.99,,,-99.99,,2013-05-29 07:21:00,
2013-05-29 03:34:00,71.0,71.0,30.07,ESE,105,3.0,6.0,100,99.99,,,-99.99,,2013-05-29 07:34:00,
2013-05-29 03:42:00,71.0,71.0,30.07,ESE,105,3.0,6.0,100,99.99,,,-99.99,,2013-05-29 07:42:00,
2013-05-29 03:52:00,71.0,71.0,30.07,East,100,2.0,5.0,100,99.99,,,-99.99,,2013-05-29 07:52:00,
2013-05-29 04:02:00,71.0,71.0,30.07,ESE,103,1.0,2.0,100,99.99,,,-99.99,,2013-05-29 08:02:00,
2013-05-29 04:11:00,71.0,71.0,30.07,ESE,103,1.0,2.0,100,99.99,,,-99.99,,2013-05-29 08:11:00,
2013-05-29 04:22:00,71.0,71.0,30.06,ENE,58,1.0,4.0,100,99.99,,,-99.99,,2013-05-29 08:22:00,
2013-05-29 04:32:00,71.0,71.0,30.06,North,0,0.0,0.0,100,99.99,,,-99.99,,2013-05-29 08:32:00,
2013-05-29 04:42:00,71.0,71.0,30.06,North,0,0.0,0.0,100,99.99,,,-99.99,,2013-05-29 08:42:00,
2013-05-29 04:52:00,71.0,71.0,30.06,East,86,1.0,3.0,100,99.99,,,-99.99,,2013-05-29 08:52:00,
2013-05-29 05:01:00,71.0,71.0,30.06,ESE,107,1.0,3.0,100,99.99,,,-99.99,,2013-05-29 09:01:00,
2013-05-29 05:11:00,71.0,71.0,30.06,ESE,107,1.0,3.0,100,99.99,,,-99.99,,2013-05-29 09:11:00,
2013-05-29 05:21:00,71.0,71.0,30.06,North,0,0.0,0.0,100,99.99,,,-99.99,,2013-05-29 09:21:00,
2013-05-29 05:33:00,71.0,71.0,30.06,ESE,108,2.0,6.0,100,99.99,,,-99.99,,2013-05-29 09:33:00,
2013-05-29 05:42:00,71.0,71.0,30.06,ESE,108,2.0,6.0,100,99.99,,,-99.99,,2013-05-29 09:42:00,
2013-05-29 05:52:00,72.0,72.0,30.06,East,100,2.0,4.0,100,99.99,,,-99.99,,2013-05-29 09:52:00,
2013-05-29 06:03:00,72.0,72.0,30.06,ESE,105,2.0,4.0,100,99.99,,,-99.99,,2013-05-29 10:03:00,
2013-05-29 06:12:00,72.0,72.0,30.06,ESE,105,2.0,4.0,100,99.99,,,-99.99,,2013-05-29 10:12:00,
2013-05-29 06:22:00,72.0,72.0,30.06,ESE,105,2.0,4.0,100,99.99,,,-99.99,,2013-05-29 10:22:00,
2013-05-29 06:32:00,72.0,72.0,30.07,ESE,118,3.0,5.0,100,99.99,,,-99.99,,2013-05-29 10:32:00,
2013-05-29 06:42:00,72.0,72.0,30.07,ESE,118,3.0,5.0,100,99.99,,,-99.99,,2013-05-29 10:42:00,
2013-05-29 06:53:00,72.0,72.0,30.06,East,98,5.0,8.0,100,99.99,,,-99.99,,2013-05-29 10:53:00,
2013-05-29 07:02:00,71.0,71.0,30.07,ESE,114,4.0,6.0,100,99.99,,,-99.99,,2013-05-29 11:02:00,
2013-05-29 07:12:00,71.0,71.0,30.07,ESE,118,3.0,4.0,100,99.99,,,-99.99,,2013-05-29 11:12:00,
2013-05-29 07:22:00,71.0,71.0,30.07,ESE,118,3.0,4.0,100,99.99,,,-99.99,,2013-05-29 11:22:00,
2013-05-29 07:32:00,72.0,72.0,30.07,ESE,104,4.0,8.0,100,99.99,,,-99.99,,2013-05-29 11:32:00,
2013-05-29 07:42:00,72.0,72.0,30.07,ESE,104,4.0,8.0,100,99.99,,,-99.99,,2013-05-29 11:42:00,
2013-05-29 07:52:00,72.0,72.0,30.08,ESE,111,1.0,4.0,100,99.99,,,-99.99,,2013-05-29 11:52:00,
2013-05-29 08:01:00,72.0,72.0,30.09,East,98,1.0,4.0,100,99.99,,,-99.99,,2013-05-29 12:01:00,
2013-05-29 08:11:00,72.0,72.0,30.09,East,98,1.0,4.0,100,99.99,,,-99.99,,2013-05-29 12:11:00,
2013-05-29 08:22:00,72.0,72.0,30.09,ESE,105,3.0,7.0,100,99.99,,,-99.99,,2013-05-29 12:22:00,
2013-05-29 08:32:00,73.0,73.0,30.09,ESE,108,3.0,8.0,100,99.99,,,-99.99,,2013-05-29 12:32:00,
2013-05-29 08:42:00,73.0,73.0,30.09,ESE,108,3.0,8.0,100,99.99,,,-99.99,,2013-05-29 12:42:00,
2013-05-29 08:52:00,74.0,74.0,30.10,ESE,111,4.0,7.0,100,99.99,,,-99.99,,2013-05-29 12:52:00,
2013-05-29 09:02:00,76.0,76.0,30.10,SE,125,4.0,7.0,100,99.99,,,-99.99,,2013-05-29 13:02:00,
2013-05-29 09:11:00,76.0,76.0,30.10,SE,125,4.0,7.0,100,99.99,,,-99.99,,2013-05-29 13:11:00,
2013-05-29 09:22:00,77.0,77.0,30.11,ESE,117,6.0,13.0,100,99.99,,,-99.99,,2013-05-29 13:22:00,
2013-05-29 09:32:00,78.0,77.0,30.11,ESE,104,5.0,9.0,97,99.99,,,-99.99,,2013-05-29 13:32:00,
2013-05-29 09:42:00,78.0,77.0,30.11,ESE,104,5.0,9.0,97,99.99,,,-99.99,,2013-05-29 13:42:00,
2013-05-29 09:53:00,79.0,76.0,30.10,ESE,113,7.0,14.0,90,99.99,,,-99.99,,2013-05-29 13:53:00,
2013-05-29 10:02:00,75.0,73.0,30.12,SE,143,9.0,16.0,92,99.99,,,-99.99,,2013-05-29 14:02:00,
2013-05-29 10:11:00,75.0,73.0,30.12,SE,143,9.0,16.0,92,99.99,,,-99.99,,2013-05-29 14:11:00,
2013-05-29 10:21:00,74.0,74.0,30.11,SSW,193,6.0,12.0,100,99.99,,,-99.99,,2013-05-29 14:21:00,
2013-05-29 10:32:00,74.0,74.0,30.12,SE,132,5.0,9.0,100,99.99,,,-99.99,,2013-05-29 14:32:00,
2013-05-29 10:42:00,74.0,74.0,30.12,SE,132,5.0,9.0,100,99.99,,,-99.99,,2013-05-29 14:42:00,
2013-05-29 10:52:00,74.0,74.0,30.13,ESE,104,3.0,7.0,100,99.99,,,-99.99,,2013-05-29 14:52:00,
2013-05-29 11:01:00,74.0,74.0,30.12,SSE,155,4.0,7.0,100,99.99,,,-99.99,,2013-05-29 15:01:00,
2013-05-29 11:11:00,75.0,75.0,30.14,ESE,108,3.0,5.0,100,99.99,,,-99.99,,2013-05-29 15:11:00,
2013-05-29 11:21:00,75.0,75.0,30.14,ESE,108,3.0,5.0,100,99.99,,,-99.99,,2013-05-29 15:21:00,
2013-05-29 11:33:00,75.0,75.0,30.14,ESE,118,5.0,8.0,100,99.99,,,-99.99,,2013-05-29 15:33:00,
2013-05-29 11:42:00,75.0,75.0,30.14,ESE,118,5.0,8.0,100,99.99,,,-99.99,,2013-05-29 15:42:00,
2013-05-29 11:53:00,75.0,75.0,30.14,ESE,110,3.0,6.0,100,99.99,,,-99.99,,2013-05-29 15:53:00,
2013-05-29 12:03:00,75.0,75.0,30.14,ESE,113,3.0,7.0,100,99.99,,,-99.99,,2013-05-29 16:03:00,
2013-05-29 12:12:00,75.0,75.0,30.14,ESE,113,3.0,7.0,100,99.99,,,-99.99,,2013-05-29 16:12:00,
2013-05-29 12:22:00,75.0,75.0,30.13,ESE,115,3.0,6.0,100,99.99,,,-99.99,,2013-05-29 16:22:00,
2013-05-29 12:32:00,75.0,75.0,30.13,NNE,25,3.0,6.0,100,99.99,,,-99.99,,2013-05-29 16:32:00,
2013-05-29 12:42:00,75.0,75.0,30.13,NNE,25,3.0,6.0,100,99.99,,,-99.99,,2013-05-29 16:42:00,
2013-05-29 12:52:00,76.0,76.0,30.13,ESE,103,7.0,11.0,100,99.99,,,-99.99,,2013-05-29 16:52:00,
2013-05-29 13:02:00,77.0,76.0,30.14,East,93,5.0,10.0,98,99.99,,,-99.99,,2013-05-29 17:02:00,
2013-05-29 13:12:00,76.0,70.0,30.14,SE,132,11.0,19.0,83,99.99,,,-99.99,,2013-05-29 17:12:00,
2013-05-29 13:22:00,76.0,70.0,30.14,SE,132,11.0,19.0,83,99.99,,,-99.99,,2013-05-29 17:22:00,
2013-05-29 13:32:00,75.0,71.0,30.13,SE,138,4.0,8.0,88,99.99,,,-99.99,,2013-05-29 17:32:00,
2013-05-29 13:42:00,75.0,71.0,30.13,SE,138,4.0,8.0,88,99.99,,,-99.99,,2013-05-29 17:42:00,
2013-05-29 13:52:00,75.0,72.0,30.12,South,180,1.0,4.0,91,99.99,,,-99.99,,2013-05-29 17:52:00,
2013-05-29 14:01:00,75.0,73.0,30.11,ESE,120,3.0,5.0,94,99.99,,,-99.99,,2013-05-29 18:01:00,
2013-05-29 14:13:00,76.0,74.0,30.11,SE,129,4.0,6.0,95,99.99,,,-99.99,,2013-05-29 18:13:00,
2013-05-29 14:22:00,76.0,74.0,30.11,SE,129,4.0,6.0,95,99.99,,,-99.99,,2013-05-29 18:22:00,
2013-05-29 14:32:00,78.0,75.0,30.11,ESE,111,4.0,7.0,91,99.99,,,-99.99,,2013-05-29 18:32:00,
2013-05-29 14:42:00,78.0,75.0,30.11,ESE,111,4.0,7.0,91,99.99,,,-99.99,,2013-05-29 18:42:00,
2013-05-29 14:52:00,79.0,74.0,30.10,NE,52,3.0,6.0,84,99.99,,,-99.99,,2013-05-29 18:52:00,
2013-05-29 15:02:00,80.0,74.0,30.10,East,93,5.0,10.0,81,99.99,,,-99.99,,2013-05-29 19:02:00,
2013-05-29 15:11:00,81.0,74.0,30.09,NE,56,5.0,13.0,79,99.99,,,-99.99,,2013-05-29 19:11:00,
2013-05-29 15:22:00,81.0,74.0,30.09,NE,56,5.0,13.0,79,99.99,,,-99.99,,2013-05-29 19:22:00,
2013-05-29 15:32:00,79.0,74.0,30.09,NNE,21,5.0,7.0,86,99.99,,,-99.99,,2013-05-29 19:32:00,
2013-05-29 15:44:00,77.0,75.0,30.09,NNW,342,3.0,4.0,94,99.99,,,-99.99,,2013-05-29 19:44:00,
2013-05-29 15:53:00,77.0,75.0,30.09,NNW,342,3.0,4.0,94,99.99,,,-99.99,,2013-05-29 19:53:00,
2013-05-29 16:03:00,76.0,76.0,30.09,ESE,117,6.0,16.0,99,99.99,,,-99.99,,2013-05-29 20:03:00,
2013-05-29 16:11:00,74.0,74.0,30.09,East,93,4.0,10.0,100,99.99,,,-99.99,,2013-05-29 20:11:00,
2013-05-29 16:23:00,74.0,74.0,30.09,East,93,4.0,10.0,100,99.99,,,-99.99,,2013-05-29 20:23:00,
2013-05-29 16:33:00,72.0,72.0,30.10,East,101,7.0,13.0,100,99.99,,,-99.99,,2013-05-29 20:33:00,
2013-05-29 16:42:00,72.0,72.0,30.10,East,101,7.0,13.0,100,99.99,,,-99.99,,2013-05-29 20:42:00,
2013-05-29 16:53:00,71.0,71.0,30.09,ESE,103,3.0,5.0,100,99.99,,,-99.99,,2013-05-29 20:53:00,
2013-05-29 17:02:00,71.0,71.0,30.09,SE,136,3.0,7.0,100,99.99,,,-99.99,,2013-05-29 21:02:00,
2013-05-29 17:12:00,71.0,71.0,30.09,SE,136,3.0,7.0,100,99.99,,,-99.99,,2013-05-29 21:12:00,
2013-05-29 17:22:00,71.0,71.0,30.08,SE,135,4.0,7.0,100,99.99,,,-99.99,,2013-05-29 21:22:00,
2013-05-29 17:33:00,72.0,72.0,30.08,ESE,103,2.0,4.0,100,99.99,,,-99.99,,2013-05-29 21:33:00,
2013-05-29 17:43:00,73.0,73.0,30.08,ESE,111,2.0,6.0,100,99.99,,,-99.99,,2013-05-29 21:43:00,
2013-05-29 17:53:00,73.0,73.0,30.08,ESE,111,2.0,6.0,100,99.99,,,-99.99,,2013-05-29 21:53:00,
2013-05-29 18:03:00,74.0,74.0,30.07,ESE,110,2.0,6.0,100,99.99,,,-99.99,,2013-05-29 22:03:00,
2013-05-29 18:12:00,74.0,74.0,30.07,ESE,110,2.0,6.0,100,99.99,,,-99.99,,2013-05-29 22:12:00,
2013-05-29 18:23:00,74.0,74.0,30.07,ESE,105,3.0,5.0,100,99.99,,,-99.99,,2013-05-29 22:23:00,
2013-05-29 18:33:00,75.0,75.0,30.07,ESE,105,4.0,6.0,100,99.99,,,-99.99,,2013-05-29 22:33:00,
2013-05-29 18:42:00,76.0,76.0,30.07,East,100,5.0,9.0,100,99.99,,,-99.99,,2013-05-29 22:42:00,
2013-05-29 18:53:00,76.0,76.0,30.07,East,100,5.0,9.0,100,99.99,,,-99.99,,2013-05-29 22:53:00,
2013-05-29 19:02:00,76.0,76.0,30.06,ESE,121,6.0,13.0,100,99.99,,,-99.99,,2013-05-29 23:02:00,
2013-05-29 19:12:00,76.0,76.0,30.06,ESE,121,6.0,13.0,100,99.99,,,-99.99,,2013-05-29 23:12:00,
2013-05-29 19:22:00,77.0,76.0,30.06,ESE,111,5.0,9.0,98,99.99,,,-99.99,,2013-05-29 23:22:00,
2013-05-29 19:33:00,77.0,76.0,30.06,ESE,118,4.0,8.0,97,99.99,,,-99.99,,2013-05-29 23:33:00,
2013-05-29 19:42:00,77.0,76.0,30.06,East,97,5.0,10.0,97,99.99,,,-99.99,,2013-05-29 23:42:00,
2013-05-29 19:53:00,77.0,76.0,30.06,East,97,5.0,10.0,97,99.99,,,-99.99,,2013-05-29 23:53:00,
2013-05-29 20:01:00,77.0,76.0,30.06,East,90,5.0,9.0,96,99.99,,,-99.99,,2013-05-30 00:01:00,
2013-05-29 20:11:00,77.0,76.0,30.06,East,90,5.0,9.0,96,99.99,,,-99.99,,2013-05-30 00:11:00,
2013-05-29 20:22:00,77.0,75.0,30.06,East,94,5.0,9.0,95,99.99,,,-99.99,,2013-05-30 00:22:00,
2013-05-29 20:32:00,77.0,75.0,30.06,ESE,108,6.0,11.0,95,99.99,,,-99.99,,2013-05-30 00:32:00,
2013-05-29 20:42:00,77.0,75.0,30.06,ESE,108,6.0,11.0,95,99.99,,,-99.99,,2013-05-30 00:42:00,
2013-05-29 20:52:00,76.0,75.0,30.07,ESE,114,6.0,9.0,96,99.99,,,-99.99,,2013-05-30 00:52:00,
2013-05-29 21:01:00,76.0,75.0,30.07,ESE,103,4.0,9.0,96,99.99,,,-99.99,,2013-05-30 01:01:00,
2013-05-29 21:11:00,76.0,75.0,30.08,ESE,111,5.0,10.0,96,99.99,,,-99.99,,2013-05-30 01:11:00,
2013-05-29 21:22:00,76.0,75.0,30.08,ESE,111,5.0,10.0,96,99.99,,,-99.99,,2013-05-30 01:22:00,
2013-05-29 21:32:00,76.0,75.0,30.08,SE,125,5.0,8.0,97,99.99,,,-99.99,,2013-05-30 01:32:00,
2013-05-29 21:42:00,76.0,75.0,30.08,SE,125,5.0,8.0,97,99.99,,,-99.99,,2013-05-30 01:42:00,
2013-05-29 21:52:00,75.0,74.0,30.08,SE,138,4.0,7.0,97,99.99,,,-99.99,,2013-05-30 01:52:00,
2013-05-29 22:01:00,75.0,75.0,30.08,ESE,105,5.0,8.0,99,99.99,,,-99.99,,2013-05-30 02:01:00,
2013-05-29 22:11:00,75.0,75.0,30.08,ESE,105,5.0,8.0,99,99.99,,,-99.99,,2013-05-30 02:11:00,
2013-05-29 22:21:00,75.0,75.0,30.08,ESE,105,4.0,7.0,100,99.99,,,-99.99,,2013-05-30 02:21:00,
2013-05-29 22:32:00,75.0,75.0,30.09,East,98,3.0,6.0,100,99.99,,,-99.99,,2013-05-30 02:32:00,
2013-05-29 22:42:00,75.0,75.0,30.09,East,98,3.0,6.0,100,99.99,,,-99.99,,2013-05-30 02:42:00,
2013-05-29 22:52:00,75.0,75.0,30.09,East,98,3.0,6.0,100,99.99,,,-99.99,,2013-05-30 02:52:00,
2013-05-29 23:02:00,74.0,74.0,30.09,ESE,104,1.0,4.0,100,99.99,,,-99.99,,2013-05-30 03:02:00,
2013-05-29 23:11:00,74.0,74.0,30.09,ESE,114,2.0,5.0,100,99.99,,,-99.99,,2013-05-30 03:11:00,
2013-05-29 23:21:00,74.0,74.0,30.09,ESE,114,2.0,5.0,100,99.99,,,-99.99,,2013-05-30 03:21:00,
2013-05-29 23:33:00,74.0,74.0,30.10,ESE,107,2.0,5.0,100,99.99,,,-99.99,,2013-05-30 03:33:00,
2013-05-29 23:43:00,74.0,74.0,30.10,ESE,107,2.0,5.0,100,99.99,,,-99.99,,2013-05-30 03:43:00,
2013-05-29 23:53:00,74.0,74.0,30.10,East,98,3.0,7.0,100,99.99,,,-99.99,,2013-05-30 03:53:00,